createdAt,value
2023-11-30T00:02:19.063Z,10.16
2023-11-30T00:04:47.289Z,9.55
2023-11-30T00:07:14.907Z,10.87
2023-11-30T00:09:42.525Z,12.18
2023-11-30T00:12:12.396Z,12.47
2023-11-30T00:14:40.059Z,13.16
2023-11-30T00:17:08.306Z,11.81
2023-11-30T00:19:37.588Z,11.14
2023-11-30T00:22:06.329Z,11.22
2023-11-30T00:24:34.253Z,12.03
2023-11-30T00:27:02.402Z,13.43
2023-11-30T00:29:31.448Z,13.47
2023-11-30T00:31:59.350Z,13.75
2023-11-30T00:34:27.002Z,12.74
2023-11-30T00:36:55.328Z,12.51
2023-11-30T00:39:23.195Z,13.51
2023-11-30T00:41:51.016Z,14.16
2023-11-30T00:44:20.375Z,13.36
2023-11-30T00:46:49.539Z,13.72
2023-11-30T00:49:17.367Z,12.96
2023-11-30T00:51:44.973Z,13.73
2023-11-30T00:54:13.395Z,11.03
2023-11-30T00:56:41.024Z,12.45
2023-11-30T00:59:09.642Z,12.42
2023-11-30T01:01:37.839Z,12.34
2023-11-30T01:04:07.460Z,12.61
2023-11-30T01:06:35.151Z,11.28
2023-11-30T01:09:02.808Z,12.25
2023-11-30T01:11:31.416Z,13.56
2023-11-30T01:13:59.105Z,12.52
2023-11-30T01:16:27.440Z,13.34
2023-11-30T01:18:55.728Z,13.18
2023-11-30T01:21:25.431Z,12.15
2023-11-30T01:23:53.114Z,12.93
2023-11-30T01:26:21.414Z,10.84
2023-11-30T01:28:49.181Z,11.87
2023-11-30T01:31:17.451Z,12.50
2023-11-30T01:33:45.129Z,12.21
2023-11-30T01:36:14.545Z,12.21
2023-11-30T01:38:43.597Z,12.68
2023-11-30T01:41:11.425Z,12.40
2023-11-30T01:43:39.084Z,13.56
2023-11-30T01:46:08.495Z,11.70
2023-11-30T01:48:36.322Z,12.60
2023-11-30T01:51:06.538Z,12.06
2023-11-30T01:53:37.846Z,12.01
2023-11-30T01:56:08.874Z,12.38
2023-11-30T01:58:38.443Z,13.08
2023-11-30T02:01:06.836Z,12.26
2023-11-30T02:03:34.765Z,12.58
2023-11-30T02:06:03.476Z,12.80
2023-11-30T02:08:31.171Z,13.98
2023-11-30T02:10:59.479Z,13.14
2023-11-30T02:13:28.523Z,11.86
2023-11-30T02:15:56.479Z,12.75
2023-11-30T02:18:24.148Z,11.78
2023-11-30T02:20:52.499Z,11.03
2023-11-30T02:23:21.707Z,13.12
2023-11-30T02:25:49.361Z,12.13
2023-11-30T02:28:20.520Z,10.68
2023-11-30T02:30:49.377Z,12.53
2023-11-30T02:33:17.613Z,11.54
2023-11-30T02:35:45.378Z,12.56
2023-11-30T02:38:13.484Z,12.62
2023-11-30T02:40:42.560Z,10.93
2023-11-30T02:43:10.220Z,11.22
2023-11-30T02:45:37.943Z,11.74
2023-11-30T02:48:06.594Z,11.47
2023-11-30T02:50:34.312Z,11.24
2023-11-30T02:53:02.331Z,10.37
2023-11-30T02:55:30.639Z,11.89
2023-11-30T02:57:59.705Z,9.46
2023-11-30T03:00:27.525Z,9.93
2023-11-30T03:02:55.272Z,10.73
2023-11-30T03:05:23.506Z,11.69
2023-11-30T03:08:12.555Z,12.20
2023-11-30T03:10:40.249Z,12.97
2023-11-30T03:13:09.520Z,12.15
2023-11-30T03:15:45.126Z,12.60
2023-11-30T03:18:13.640Z,11.48
2023-11-30T03:20:41.428Z,12.28
2023-11-30T03:23:09.544Z,11.50
2023-11-30T03:25:37.943Z,10.66
2023-11-30T03:28:05.761Z,12.17
2023-11-30T03:30:35.610Z,11.91
2023-11-30T03:33:03.354Z,12.56
2023-11-30T03:35:31.559Z,12.38
2023-11-30T03:37:59.341Z,13.71
2023-11-30T03:40:27.568Z,11.79
2023-11-30T03:43:15.572Z,12.18
2023-11-30T03:45:44.676Z,12.81
2023-11-30T03:48:12.657Z,13.35
2023-11-30T03:50:40.321Z,12.02
2023-11-30T03:53:20.566Z,12.16
2023-11-30T03:55:48.215Z,10.54
2023-11-30T03:58:15.840Z,11.77
2023-11-30T04:00:45.596Z,11.53
2023-11-30T04:03:13.263Z,11.03
2023-11-30T04:05:41.570Z,13.42
2023-11-30T04:08:09.284Z,11.63
2023-11-30T04:10:36.914Z,12.49
2023-11-30T04:13:04.581Z,12.88
2023-11-30T04:15:32.355Z,12.43
2023-11-30T04:18:01.492Z,12.20
2023-11-30T04:20:29.607Z,12.23
2023-11-30T04:22:57.576Z,12.31
2023-11-30T04:25:25.630Z,12.63
2023-11-30T04:27:54.188Z,12.59
2023-11-30T04:30:21.884Z,12.24
2023-11-30T04:32:49.648Z,11.81
2023-11-30T04:35:19.630Z,11.46
2023-11-30T04:37:47.310Z,11.69
2023-11-30T04:40:17.786Z,12.08
2023-11-30T04:42:45.594Z,12.39
2023-11-30T04:45:13.313Z,12.14
2023-11-30T04:47:41.655Z,11.77
2023-11-30T04:50:10.064Z,12.09
2023-11-30T04:52:39.663Z,12.87
2023-11-30T04:55:08.862Z,11.75
2023-11-30T05:00:54.629Z,13.93
2023-11-30T05:03:22.814Z,14.39
2023-11-30T05:05:51.655Z,12.91
2023-11-30T05:08:20.740Z,13.58
2023-11-30T05:10:48.438Z,11.60
2023-11-30T05:13:16.644Z,12.17
2023-11-30T05:15:46.353Z,13.23
2023-11-30T05:18:15.680Z,13.24
2023-11-30T05:20:43.423Z,12.16
2023-11-30T05:23:11.762Z,13.67
2023-11-30T05:25:40.989Z,13.35
2023-11-30T05:28:09.658Z,13.24
2023-11-30T05:30:37.376Z,12.21
2023-11-30T05:33:05.367Z,10.83
2023-11-30T05:35:34.256Z,9.94
2023-11-30T05:38:02.685Z,9.92
2023-11-30T05:40:30.352Z,10.84
2023-11-30T05:42:59.744Z,9.95
2023-11-30T05:45:28.494Z,9.63
2023-11-30T05:47:56.825Z,11.56
2023-11-30T05:50:24.806Z,10.83
2023-11-30T05:52:53.698Z,12.38
2023-11-30T05:55:21.943Z,11.54
2023-11-30T05:57:49.706Z,13.90
2023-11-30T06:00:19.455Z,11.90
2023-11-30T06:02:47.698Z,11.03
2023-11-30T06:05:17.801Z,11.24
2023-11-30T06:07:51.716Z,12.54
2023-11-30T06:10:19.405Z,13.86
2023-11-30T06:12:47.787Z,14.05
2023-11-30T06:15:15.757Z,13.38
2023-11-30T06:17:44.894Z,10.80
2023-11-30T06:20:13.938Z,11.27
2023-11-30T06:22:41.786Z,11.76
2023-11-30T06:25:10.212Z,10.79
2023-11-30T06:27:39.048Z,12.24
2023-11-30T06:30:10.950Z,11.74
2023-11-30T06:32:39.785Z,12.88
2023-11-30T06:35:09.779Z,13.33
2023-11-30T06:37:37.496Z,11.96
2023-11-30T06:40:07.746Z,12.85
2023-11-30T06:42:35.611Z,12.84
2023-11-30T06:45:03.569Z,13.07
2023-11-30T06:47:31.764Z,12.83
2023-11-30T06:49:59.537Z,12.88
2023-11-30T06:52:28.646Z,12.25
2023-11-30T06:54:57.754Z,14.17
2023-11-30T06:57:25.512Z,12.06
2023-11-30T06:59:54.064Z,13.19
2023-11-30T07:02:22.980Z,13.12
2023-11-30T07:04:50.910Z,12.73
2023-11-30T07:07:27.975Z,12.86
2023-11-30T07:10:03.894Z,12.89
2023-11-30T07:12:32.210Z,13.34
2023-11-30T07:15:00.960Z,12.97
2023-11-30T07:17:28.948Z,12.83
2023-11-30T07:19:56.579Z,12.46
2023-11-30T07:22:26.799Z,11.90
2023-11-30T07:24:54.840Z,12.92
2023-11-30T07:27:23.951Z,12.40
2023-11-30T07:29:51.815Z,12.12
2023-11-30T07:32:19.688Z,11.76
2023-11-30T07:34:47.816Z,13.02
2023-11-30T07:37:17.562Z,11.93
2023-11-30T07:39:45.793Z,12.05
2023-11-30T07:42:23.833Z,13.71
2023-11-30T07:44:59.956Z,13.53
2023-11-30T07:47:27.702Z,14.14
2023-11-30T07:49:55.842Z,14.93
2023-11-30T07:52:23.474Z,14.29
2023-11-30T07:54:51.865Z,14.58
2023-11-30T07:57:19.609Z,13.80
2023-11-30T07:59:48.957Z,14.52
2023-11-30T08:02:25.839Z,13.74
2023-11-30T08:04:53.549Z,13.48
2023-11-30T08:07:22.584Z,12.78
2023-11-30T08:09:50.867Z,13.65
2023-11-30T08:12:18.613Z,13.67
2023-11-30T08:14:46.290Z,12.64
2023-11-30T08:17:15.072Z,14.18
2023-11-30T08:19:44.243Z,12.75
2023-11-30T08:22:14.921Z,12.86
2023-11-30T08:24:43.997Z,14.46
2023-11-30T08:27:11.917Z,13.18
2023-11-30T08:29:39.620Z,12.54
2023-11-30T08:32:08.868Z,12.89
2023-11-30T08:34:36.843Z,14.07
2023-11-30T08:37:06.372Z,12.96
2023-11-30T08:39:34.936Z,10.99
2023-11-30T08:42:03.501Z,11.22
2023-11-30T08:44:31.294Z,10.59
2023-11-30T08:46:58.916Z,12.42
2023-11-30T08:49:26.536Z,13.16
2023-11-30T08:51:55.922Z,12.54
2023-11-30T08:54:25.256Z,13.61
2023-11-30T08:56:53.263Z,13.61
2023-11-30T08:59:21.906Z,13.56
2023-11-30T09:01:50.965Z,11.99
2023-11-30T09:04:20.057Z,13.25
2023-11-30T09:06:50.692Z,11.53
2023-11-30T09:09:18.939Z,12.62
2023-11-30T09:11:47.915Z,10.70
2023-11-30T09:14:15.914Z,10.04
2023-11-30T09:16:43.885Z,12.26
2023-11-30T09:19:11.945Z,12.24
2023-11-30T09:21:39.749Z,13.13
2023-11-30T09:24:08.937Z,13.30
2023-11-30T09:29:21.946Z,12.84
2023-11-30T09:31:49.893Z,10.92
2023-11-30T09:34:17.937Z,14.04
2023-11-30T09:36:45.856Z,12.36
2023-11-30T09:42:42.007Z,12.01
2023-11-30T09:45:11.787Z,11.95
2023-11-30T09:47:39.856Z,9.72
2023-11-30T09:50:08.462Z,11.26
2023-11-30T09:52:39.013Z,11.29
2023-11-30T09:55:11.718Z,12.92
2023-11-30T09:57:40.355Z,13.00
2023-11-30T10:00:12.035Z,13.78
2023-11-30T10:02:51.846Z,11.11
2023-11-30T10:05:19.986Z,11.22
2023-11-30T10:07:47.756Z,11.25
2023-11-30T10:10:16.033Z,10.22
2023-11-30T10:12:44.054Z,10.71
2023-11-30T10:15:12.207Z,10.33
2023-11-30T10:20:39.990Z,11.14
2023-11-30T10:23:11.754Z,12.80
2023-11-30T10:25:40.494Z,12.68
2023-11-30T10:31:26.011Z,14.23
2023-11-30T10:33:57.286Z,14.39
2023-11-30T10:36:28.644Z,13.44
2023-11-30T10:39:00.036Z,11.99
2023-11-30T10:41:30.083Z,10.27
2023-11-30T10:44:00.022Z,10.25
2023-11-30T10:46:28.368Z,10.14
2023-11-30T10:48:57.464Z,10.03
2023-11-30T10:51:26.106Z,10.07
2023-11-30T10:54:08.792Z,10.39
2023-11-30T10:56:37.046Z,10.72
2023-11-30T10:59:05.250Z,12.91
2023-11-30T11:01:37.104Z,12.27
2023-11-30T11:04:08.785Z,10.24
2023-11-30T11:06:38.144Z,12.55
2023-11-30T11:12:54.061Z,12.19
2023-11-30T11:15:23.376Z,12.27
2023-11-30T11:17:53.596Z,10.85
2023-11-30T11:20:26.155Z,13.09
2023-11-30T11:22:56.080Z,13.77
2023-11-30T11:25:24.046Z,13.18
2023-11-30T11:27:53.036Z,11.62
2023-11-30T11:30:28.435Z,13.51
2023-11-30T11:32:59.019Z,12.43
2023-11-30T11:35:28.204Z,11.17
2023-11-30T11:37:57.897Z,12.13
2023-11-30T11:40:26.070Z,13.31
2023-11-30T11:42:55.533Z,12.46
2023-11-30T11:45:24.108Z,11.19
2023-11-30T11:47:51.731Z,13.68
2023-11-30T11:50:20.130Z,12.79
2023-11-30T11:52:47.858Z,10.81
2023-11-30T11:55:16.150Z,11.09
2023-11-30T11:57:45.193Z,13.27
2023-11-30T12:00:18.405Z,13.14
2023-11-30T12:02:47.155Z,11.74
2023-11-30T12:05:26.484Z,10.33
2023-11-30T12:08:12.334Z,12.97
2023-11-30T12:10:41.390Z,11.23
2023-11-30T12:13:10.108Z,13.30
2023-11-30T12:15:39.368Z,12.41
2023-11-30T12:18:08.066Z,11.52
2023-11-30T12:20:37.136Z,10.09
2023-11-30T12:23:04.934Z,10.27
2023-11-30T12:25:34.886Z,11.42
2023-11-30T12:28:03.160Z,12.33
2023-11-30T12:30:30.773Z,13.16
2023-11-30T12:33:00.207Z,13.10
2023-11-30T12:35:27.978Z,12.65
2023-11-30T12:37:56.170Z,13.39
2023-11-30T12:40:23.817Z,14.10
2023-11-30T12:42:52.224Z,11.52
2023-11-30T12:45:20.143Z,12.87
2023-11-30T12:47:48.220Z,11.73
2023-11-30T12:50:17.419Z,12.08
2023-11-30T12:52:46.197Z,10.51
2023-11-30T12:55:14.930Z,10.62
2023-11-30T12:57:44.022Z,11.70
2023-11-30T13:00:16.791Z,12.19
2023-11-30T13:02:46.676Z,14.34
2023-11-30T13:05:14.817Z,14.01
2023-11-30T13:07:44.074Z,13.85
2023-11-30T13:10:13.365Z,10.46
2023-11-30T13:12:41.774Z,12.50
2023-11-30T13:15:12.453Z,10.37
2023-11-30T13:17:41.224Z,10.93
2023-11-30T13:20:15.302Z,8.29
2023-11-30T13:25:20.266Z,9.47
2023-11-30T13:27:59.846Z,9.63
2023-11-30T13:30:30.068Z,8.64
2023-11-30T13:32:58.978Z,8.23
2023-11-30T13:35:27.249Z,10.53
2023-11-30T13:40:56.239Z,9.01
2023-11-30T13:43:27.224Z,9.15
2023-11-30T13:45:55.362Z,10.25
2023-11-30T13:48:22.955Z,9.09
2023-11-30T13:50:56.472Z,9.15
2023-11-30T13:53:29.369Z,9.18
2023-11-30T13:55:59.236Z,8.51
2023-11-30T13:58:26.862Z,9.45
2023-11-30T14:00:55.343Z,9.81
2023-11-30T14:03:23.064Z,9.59
2023-11-30T14:05:51.284Z,10.65
2023-11-30T14:08:18.964Z,10.29
2023-11-30T14:10:46.858Z,10.39
2023-11-30T14:13:16.269Z,10.34
2023-11-30T14:15:43.858Z,10.49
2023-11-30T14:18:12.367Z,10.44
2023-11-30T14:20:40.946Z,11.74
2023-11-30T14:26:18.284Z,11.24
2023-11-30T14:28:49.545Z,9.79
2023-11-30T14:31:17.758Z,10.29
2023-11-30T14:33:46.697Z,9.79
2023-11-30T14:36:15.314Z,8.50
2023-11-30T14:38:42.976Z,8.85
2023-11-30T14:41:11.292Z,10.85
2023-11-30T14:43:39.899Z,10.95
2023-11-30T14:46:09.323Z,8.04
2023-11-30T14:48:36.939Z,10.20
2023-11-30T14:51:20.372Z,8.90
2023-11-30T14:53:48.434Z,10.38
2023-11-30T14:56:16.249Z,10.78
2023-11-30T14:58:44.327Z,10.56
2023-11-30T15:01:14.595Z,9.78
2023-11-30T15:03:43.433Z,9.09
2023-11-30T15:06:11.328Z,10.18
2023-11-30T15:08:39.331Z,9.79
2023-11-30T15:13:50.410Z,9.48
2023-11-30T15:16:19.507Z,10.51
2023-11-30T15:18:47.460Z,11.88
2023-11-30T15:21:16.372Z,10.28
2023-11-30T15:23:44.482Z,10.62
2023-11-30T15:26:15.351Z,11.31
2023-11-30T15:28:43.102Z,11.83
2023-11-30T15:31:11.362Z,10.33
2023-11-30T15:33:40.618Z,9.14
2023-11-30T15:36:09.369Z,9.63
2023-11-30T15:38:38.887Z,10.62
2023-11-30T15:41:07.377Z,10.89
2023-11-30T15:43:35.159Z,9.43
2023-11-30T15:46:04.460Z,10.17
2023-11-30T15:48:32.562Z,10.13
2023-11-30T15:51:03.377Z,9.38
2023-11-30T15:53:31.229Z,11.90
2023-11-30T15:56:00.440Z,11.07
2023-11-30T15:58:28.973Z,9.52
2023-11-30T16:00:57.426Z,10.07
2023-11-30T16:03:26.024Z,9.29
2023-11-30T16:05:53.652Z,9.00
2023-11-30T16:08:23.383Z,9.21
2023-11-30T16:10:51.086Z,9.04
2023-11-30T16:13:21.422Z,8.46
2023-11-30T16:15:49.274Z,9.28
2023-11-30T16:18:17.464Z,10.82
2023-11-30T16:20:45.103Z,9.73
2023-11-30T16:23:13.445Z,10.38
2023-11-30T16:25:42.477Z,10.13
2023-11-30T16:28:12.439Z,8.64
2023-11-30T16:30:40.115Z,10.51
2023-11-30T16:33:08.500Z,10.24
2023-11-30T16:35:36.230Z,9.83
2023-11-30T16:38:04.463Z,10.34
2023-11-30T16:40:32.097Z,9.87
2023-11-30T16:43:01.457Z,9.50
2023-11-30T16:45:29.140Z,9.91
2023-11-30T16:47:57.631Z,10.82
2023-11-30T16:50:25.261Z,9.56
2023-11-30T16:52:53.133Z,10.70
2023-11-30T16:55:21.470Z,9.23
2023-11-30T16:57:49.096Z,9.78
2023-11-30T17:00:19.537Z,11.27
2023-11-30T17:02:47.934Z,9.47
2023-11-30T17:05:16.472Z,9.07
2023-11-30T17:07:46.319Z,8.87
2023-11-30T17:10:14.502Z,10.82
2023-11-30T17:12:42.156Z,10.18
2023-11-30T17:15:10.484Z,8.51
2023-11-30T17:17:39.542Z,9.32
2023-11-30T17:20:08.750Z,9.46
2023-11-30T17:22:36.603Z,10.93
2023-11-30T17:25:04.426Z,9.99
2023-11-30T17:27:32.550Z,8.45
2023-11-30T17:30:00.452Z,9.18
2023-11-30T17:32:28.414Z,9.87
2023-11-30T17:34:57.637Z,10.84
2023-11-30T17:37:25.508Z,10.07
2023-11-30T17:39:53.616Z,9.66
2023-11-30T17:42:22.386Z,10.63
2023-11-30T17:44:50.538Z,10.96
2023-11-30T17:50:37.538Z,10.15
2023-11-30T17:53:05.868Z,10.54
2023-11-30T17:55:34.540Z,10.02
2023-11-30T17:58:03.251Z,9.56
2023-11-30T18:00:31.573Z,11.06
2023-11-30T18:02:59.887Z,8.09
2023-11-30T18:05:27.768Z,9.22
2023-11-30T18:07:58.214Z,9.34
2023-11-30T18:10:25.813Z,9.04
2023-11-30T18:12:53.602Z,10.42
2023-11-30T18:15:21.290Z,10.57
2023-11-30T18:17:49.007Z,11.21
2023-11-30T18:20:16.831Z,10.10
2023-11-30T18:22:44.567Z,11.46
2023-11-30T18:25:14.042Z,9.31
2023-11-30T18:27:42.619Z,10.83
2023-11-30T18:30:11.778Z,11.92
2023-11-30T18:32:43.101Z,10.44
2023-11-30T18:35:10.985Z,10.10
2023-11-30T18:37:39.571Z,11.05
2023-11-30T18:40:08.476Z,9.59
2023-11-30T18:42:38.603Z,10.99
2023-11-30T18:45:07.582Z,10.61
2023-11-30T18:47:37.995Z,8.88
2023-11-30T18:50:06.588Z,8.18
2023-11-30T18:52:34.586Z,8.65
2023-11-30T18:55:03.638Z,9.26
2023-11-30T18:57:31.398Z,8.54
2023-11-30T19:00:01.649Z,10.26
2023-11-30T19:02:29.474Z,10.17
2023-11-30T19:04:58.635Z,10.92
2023-11-30T19:07:26.719Z,9.25
2023-11-30T19:09:55.651Z,10.25
2023-11-30T19:12:23.315Z,9.89
2023-11-30T19:14:51.852Z,8.78
2023-11-30T19:17:20.957Z,8.72
2023-11-30T19:19:49.700Z,8.80
2023-11-30T19:22:37.377Z,8.55
2023-11-30T19:25:06.673Z,7.60
2023-11-30T19:27:34.392Z,7.12
2023-11-30T19:30:02.634Z,9.09
2023-11-30T19:32:31.842Z,9.65
2023-11-30T19:34:59.783Z,10.76
2023-11-30T19:37:27.384Z,11.41
2023-11-30T19:39:55.693Z,9.99
2023-11-30T19:42:25.170Z,10.59
2023-11-30T19:44:53.664Z,10.17
2023-11-30T19:47:21.369Z,9.32
2023-11-30T19:49:50.651Z,9.03
2023-11-30T19:52:18.559Z,8.69
2023-11-30T19:54:46.723Z,10.53
2023-11-30T19:57:14.371Z,9.84
2023-11-30T19:59:42.232Z,9.11
2023-11-30T20:02:09.875Z,9.19
2023-11-30T20:04:37.679Z,8.64
2023-11-30T20:07:06.764Z,8.94
2023-11-30T20:09:34.775Z,9.83
2023-11-30T20:12:02.432Z,9.90
2023-11-30T20:14:30.681Z,9.65
2023-11-30T20:16:58.942Z,9.34
2023-11-30T20:19:26.862Z,9.55
2023-11-30T20:21:54.729Z,8.71
2023-11-30T20:24:23.845Z,9.71
2023-11-30T20:26:53.690Z,9.46
2023-11-30T20:29:21.270Z,10.29
2023-11-30T20:32:02.705Z,9.23
2023-11-30T20:34:30.349Z,8.83
2023-11-30T20:36:59.203Z,10.29
2023-11-30T20:39:28.760Z,10.50
2023-11-30T20:41:56.408Z,11.64
2023-11-30T20:44:24.018Z,11.59
2023-11-30T20:46:51.749Z,10.97
2023-11-30T20:49:20.643Z,9.39
2023-11-30T20:51:48.503Z,9.99
2023-11-30T20:54:16.220Z,10.17
2023-11-30T21:00:08.725Z,10.20
2023-11-30T21:02:36.670Z,10.15
2023-11-30T21:05:04.787Z,10.58
2023-11-30T21:07:32.726Z,11.19
2023-11-30T21:10:00.827Z,12.01
2023-11-30T21:12:28.772Z,9.79
2023-11-30T21:14:56.798Z,11.31
2023-11-30T21:17:25.993Z,9.87
2023-11-30T21:19:53.755Z,10.88
2023-11-30T21:22:21.393Z,9.68
2023-11-30T21:24:49.789Z,11.18
2023-11-30T21:27:17.476Z,9.78
2023-11-30T21:29:45.777Z,11.31
2023-11-30T21:32:13.991Z,10.26
2023-11-30T21:34:43.815Z,11.42
2023-11-30T21:37:11.721Z,10.25
2023-11-30T21:39:39.795Z,9.30
2023-11-30T21:42:08.580Z,9.17
2023-11-30T21:44:39.388Z,9.80
2023-11-30T21:47:07.698Z,9.58
2023-11-30T21:49:35.873Z,9.55
2023-11-30T21:52:05.711Z,9.69
2023-11-30T21:54:33.375Z,10.07
2023-11-30T21:57:01.794Z,10.74
2023-11-30T21:59:29.434Z,11.22
2023-11-30T22:01:58.034Z,11.17
2023-11-30T22:04:26.037Z,9.91
2023-11-30T22:06:53.868Z,10.49
2023-11-30T22:09:22.922Z,9.81
2023-11-30T22:11:50.943Z,11.85
2023-11-30T22:14:18.580Z,11.11
2023-11-30T22:16:46.899Z,10.97
2023-11-30T22:19:14.631Z,9.76
2023-11-30T22:21:42.247Z,10.95
2023-11-30T22:24:16.822Z,10.82
2023-11-30T22:26:45.826Z,9.25
2023-11-30T22:29:13.409Z,11.55
2023-11-30T22:31:41.848Z,12.77
2023-11-30T22:34:09.634Z,10.24
2023-11-30T22:36:37.894Z,10.35
2023-11-30T22:39:05.623Z,10.95
2023-11-30T22:41:33.224Z,9.65
2023-11-30T22:44:02.212Z,10.17
2023-11-30T22:46:29.938Z,10.73
2023-11-30T22:48:57.636Z,10.46
2023-11-30T22:51:25.343Z,10.79
2023-11-30T22:53:53.877Z,9.08
2023-11-30T22:56:23.260Z,9.18
2023-11-30T22:58:51.893Z,9.74
2023-11-30T23:01:22.080Z,8.89
2023-11-30T23:03:50.134Z,9.43
2023-11-30T23:06:18.906Z,10.18
2023-11-30T23:08:47.675Z,10.25
2023-11-30T23:11:15.291Z,10.67
2023-11-30T23:13:43.887Z,9.85
2023-11-30T23:16:12.943Z,11.72
2023-11-30T23:18:42.940Z,9.89
2023-11-30T23:21:10.601Z,10.26
2023-11-30T23:23:38.922Z,9.68
2023-11-30T23:26:06.765Z,11.71
2023-11-30T23:28:35.903Z,11.33
2023-11-30T23:31:03.624Z,10.35
2023-11-30T23:33:31.945Z,10.47
2023-11-30T23:36:00.978Z,9.70
2023-11-30T23:38:28.602Z,10.42
2023-11-30T23:40:56.912Z,10.46
2023-11-30T23:43:24.609Z,10.56
2023-11-30T23:45:52.934Z,10.71
2023-11-30T23:48:20.553Z,10.41
2023-11-30T23:50:48.907Z,9.93
2023-11-30T23:53:17.942Z,10.40
2023-11-30T23:55:45.925Z,10.24
2023-11-30T23:58:13.616Z,10.72
